Time;durP1;ratioP1;P1;durP2;ratioP2;P2;SDS_P1;SDS_P2;PMS_P1;PMS_P2;Temp;Humidity;BMP_temperature;BMP_pressure;BME280_temperature;BME280_humidity;BME280_pressure;Samples;Min_cycle;Max_cycle;Signal;HPM_P1;HPM_P2
2024/01/16 00:01:18;;;;;;;14.27;10.48;;;;;;;;;;5114494;28;20417;-55
2024/01/16 00:03:45;;;;;;;13.57;9.23;;;;;;;;;;5114197;28;20059;-53
2024/01/16 00:06:12;;;;;;;16.73;9.68;;;;;;;;;;5119800;27;20480;-54
2024/01/16 00:08:40;;;;;;;14.60;10.75;;;;;;;;;;5119285;27;20054;-54
2024/01/16 00:11:07;;;;;;;12.80;9.80;;;;;;;;;;5121862;27;20053;-54
2024/01/16 00:13:34;;;;;;;14.32;9.57;;;;;;;;;;5117645;27;20043;-56
2024/01/16 00:16:04;;;;;;;14.20;9.45;;;;;;;;;;5093961;28;20059;-54
2024/01/16 00:18:31;;;;;;;13.90;9.38;;;;;;;;;;5093310;28;20047;-54
2024/01/16 00:20:58;;;;;;;13.02;9.70;;;;;;;;;;5094152;28;20048;-54
2024/01/16 00:23:25;;;;;;;16.27;9.48;;;;;;;;;;5122673;27;20059;-53
2024/01/16 00:25:54;;;;;;;13.02;8.93;;;;;;;;;;5120186;27;20051;-54
2024/01/16 00:28:20;;;;;;;14.63;9.98;;;;;;;;;;5113407;28;20055;-54
2024/01/16 00:30:47;;;;;;;15.13;10.00;;;;;;;;;;5113951;28;20060;-54
2024/01/16 00:33:14;;;;;;;13.85;10.25;;;;;;;;;;5115235;27;20489;-51
2024/01/16 00:35:41;;;;;;;17.45;11.38;;;;;;;;;;5113622;28;20507;-54
2024/01/16 00:38:07;;;;;;;15.10;10.25;;;;;;;;;;5113543;28;20054;-54
2024/01/16 00:40:34;;;;;;;16.02;9.63;;;;;;;;;;5112667;28;20047;-52
2024/01/16 00:43:02;;;;;;;16.17;9.40;;;;;;;;;;5113185;28;20048;-54
2024/01/16 00:45:29;;;;;;;13.93;8.90;;;;;;;;;;5113477;28;20420;-54
2024/01/16 00:47:55;;;;;;;12.63;9.02;;;;;;;;;;5113777;28;20109;-54
2024/01/16 00:50:24;;;;;;;14.07;9.13;;;;;;;;;;5113700;28;20048;-53
2024/01/16 00:52:51;;;;;;;10.50;7.43;;;;;;;;;;5121193;27;20412;-53
2024/01/16 00:55:17;;;;;;;12.45;8.00;;;;;;;;;;5117069;27;20048;-53
2024/01/16 00:57:44;;;;;;;12.55;8.10;;;;;;;;;;5113526;28;20445;-52
2024/01/16 01:00:13;;;;;;;11.70;7.68;;;;;;;;;;5113042;28;20397;-53
2024/01/16 01:02:40;;;;;;;10.68;7.75;;;;;;;;;;5111910;28;20048;-54
2024/01/16 01:05:07;;;;;;;9.73;7.93;;;;;;;;;;5117556;27;20060;-54
2024/01/16 01:07:34;;;;;;;12.85;8.07;;;;;;;;;;5116875;27;20043;-56
2024/01/16 01:10:02;;;;;;;15.55;9.43;;;;;;;;;;5115342;27;20060;-55
2024/01/16 01:12:29;;;;;;;17.13;9.52;;;;;;;;;;5121781;27;20050;-54
2024/01/16 01:14:55;;;;;;;13.20;9.93;;;;;;;;;;5116421;28;20047;-55
2024/01/16 01:17:24;;;;;;;16.70;10.23;;;;;;;;;;5122752;27;20606;-54
2024/01/16 01:19:51;;;;;;;16.83;10.65;;;;;;;;;;5122934;28;20047;-54
2024/01/16 01:22:18;;;;;;;16.33;11.00;;;;;;;;;;5114751;28;20047;-55
2024/01/16 01:24:45;;;;;;;15.48;10.55;;;;;;;;;;5112624;28;20056;-55
2024/01/16 01:27:11;;;;;;;14.20;11.30;;;;;;;;;;5112719;28;20090;-55
2024/01/16 01:29:38;;;;;;;18.65;11.05;;;;;;;;;;5112692;28;20402;-53
2024/01/16 01:32:05;;;;;;;18.95;10.77;;;;;;;;;;5116374;28;20046;-52
2024/01/16 01:34:34;;;;;;;15.65;11.18;;;;;;;;;;5115061;28;20062;-53
2024/01/16 01:37:01;;;;;;;15.48;11.27;;;;;;;;;;5113206;28;20054;-52
2024/01/16 01:39:28;;;;;;;15.50;10.82;;;;;;;;;;5117052;27;20055;-53
2024/01/16 01:41:55;;;;;;;14.77;11.02;;;;;;;;;;5125562;27;20047;-52
2024/01/16 01:44:24;;;;;;;14.20;11.68;;;;;;;;;;5120356;27;20054;-53
2024/01/16 01:46:51;;;;;;;15.88;11.55;;;;;;;;;;5125043;27;20052;-52
2024/01/16 01:49:18;;;;;;;13.73;9.57;;;;;;;;;;5120932;27;20047;-56
2024/01/16 01:51:46;;;;;;;16.00;11.00;;;;;;;;;;5118243;27;20495;-53
2024/01/16 01:54:15;;;;;;;16.70;10.63;;;;;;;;;;5116415;28;20047;-53
2024/01/16 01:56:43;;;;;;;16.52;10.82;;;;;;;;;;5116750;28;20051;-54
2024/01/16 01:59:10;;;;;;;14.23;10.18;;;;;;;;;;5116762;28;20058;-53
2024/01/16 02:01:36;;;;;;;15.15;10.52;;;;;;;;;;5116170;28;20058;-53
2024/01/16 02:04:04;;;;;;;13.98;10.48;;;;;;;;;;5115543;27;20056;-52
2024/01/16 02:06:31;;;;;;;13.65;10.20;;;;;;;;;;5096377;28;20397;-53
2024/01/16 02:08:59;;;;;;;17.20;10.80;;;;;;;;;;5115317;27;20070;-54
2024/01/16 02:11:26;;;;;;;15.93;11.40;;;;;;;;;;5124947;27;20054;-54
2024/01/16 02:13:53;;;;;;;18.33;10.68;;;;;;;;;;5096329;28;20052;-52
2024/01/16 02:16:20;;;;;;;16.50;10.95;;;;;;;;;;5097661;28;20055;-56
2024/01/16 02:18:47;;;;;;;14.20;10.63;;;;;;;;;;5116035;28;20051;-55
2024/01/16 02:21:17;;;;;;;20.52;10.88;;;;;;;;;;5117731;27;20051;-53
2024/01/16 02:23:45;;;;;;;15.82;10.52;;;;;;;;;;5116366;28;20043;-54
2024/01/16 02:26:12;;;;;;;13.98;10.25;;;;;;;;;;5116284;28;20058;-53
2024/01/16 02:28:39;;;;;;;15.65;10.45;;;;;;;;;;5114903;28;20435;-54
2024/01/16 02:31:05;;;;;;;16.88;11.55;;;;;;;;;;5117990;27;20055;-54
2024/01/16 02:33:32;;;;;;;16.00;11.10;;;;;;;;;;5125556;27;20054;-53
2024/01/16 02:35:59;;;;;;;16.58;11.60;;;;;;;;;;5118667;27;20066;-54
2024/01/16 02:38:26;;;;;;;18.88;11.77;;;;;;;;;;5115600;28;20047;-54
2024/01/16 02:40:54;;;;;;;17.15;11.65;;;;;;;;;;5121951;27;20044;-53
2024/01/16 02:43:21;;;;;;;16.35;11.77;;;;;;;;;;5124824;27;20051;-54
2024/01/16 02:45:48;;;;;;;18.67;10.80;;;;;;;;;;5116280;27;20059;-52
2024/01/16 02:48:15;;;;;;;16.08;11.20;;;;;;;;;;5115656;28;20073;-54
2024/01/16 02:50:42;;;;;;;17.30;12.35;;;;;;;;;;5114937;28;20047;-55
2024/01/16 02:53:08;;;;;;;19.60;13.45;;;;;;;;;;5115118;28;20048;-54
2024/01/16 02:55:37;;;;;;;15.93;12.05;;;;;;;;;;5115824;28;20055;-51
2024/01/16 02:58:05;;;;;;;17.00;12.18;;;;;;;;;;5115546;28;20056;-52
2024/01/16 03:00:32;;;;;;;17.88;13.40;;;;;;;;;;5117337;27;20059;-55
2024/01/16 03:02:59;;;;;;;18.63;13.38;;;;;;;;;;5124521;27;20709;-53
2024/01/16 03:05:26;;;;;;;19.50;13.20;;;;;;;;;;5118877;27;20054;-56
2024/01/16 03:07:53;;;;;;;21.08;13.18;;;;;;;;;;5123482;27;20047;-55
2024/01/16 03:10:19;;;;;;;17.80;12.55;;;;;;;;;;5123290;27;20078;-54
2024/01/16 03:12:47;;;;;;;17.00;12.43;;;;;;;;;;5124332;27;20050;-54
2024/01/16 03:15:15;;;;;;;17.15;12.85;;;;;;;;;;5121985;27;20051;-53
2024/01/16 03:17:42;;;;;;;16.95;12.65;;;;;;;;;;5119091;27;20054;-53
2024/01/16 03:20:09;;;;;;;19.60;13.02;;;;;;;;;;5115228;28;20059;-53
2024/01/16 03:22:35;;;;;;;19.20;13.30;;;;;;;;;;5114714;28;20055;-53
2024/01/16 03:25:03;;;;;;;20.48;12.45;;;;;;;;;;5120860;27;20055;-52
2024/01/16 03:27:30;;;;;;;18.83;12.90;;;;;;;;;;5115249;27;20059;-52
2024/01/16 03:29:56;;;;;;;20.25;12.88;;;;;;;;;;5114943;28;20053;-53
2024/01/16 03:32:25;;;;;;;18.27;12.43;;;;;;;;;;5115270;28;20401;-51
2024/01/16 03:34:51;;;;;;;19.83;12.40;;;;;;;;;;5115812;27;20055;-53
2024/01/16 03:37:18;;;;;;;16.48;11.52;;;;;;;;;;5120624;27;20047;-54
2024/01/16 03:39:45;;;;;;;15.85;11.70;;;;;;;;;;5119093;27;20059;-52
2024/01/16 03:42:12;;;;;;;16.05;11.85;;;;;;;;;;5114775;28;20047;-53
2024/01/16 03:44:40;;;;;;;20.52;12.77;;;;;;;;;;5121230;27;20054;-53
2024/01/16 03:47:07;;;;;;;20.52;12.25;;;;;;;;;;5135310;27;20503;-54
2024/01/16 03:49:35;;;;;;;18.45;13.60;;;;;;;;;;5122395;27;20055;-53
2024/01/16 03:52:02;;;;;;;18.15;12.35;;;;;;;;;;5114635;28;20047;-54
2024/01/16 03:54:28;;;;;;;20.02;13.88;;;;;;;;;;5117918;27;20044;-52
2024/01/16 03:56:56;;;;;;;19.27;13.68;;;;;;;;;;5123857;27;20067;-54
2024/01/16 03:59:23;;;;;;;17.02;12.65;;;;;;;;;;5115505;27;20048;-54
2024/01/16 04:01:50;;;;;;;16.10;12.45;;;;;;;;;;5114087;28;20473;-54
2024/01/16 04:04:17;;;;;;;17.55;13.18;;;;;;;;;;5115811;27;20043;-54
2024/01/16 04:06:45;;;;;;;17.67;12.63;;;;;;;;;;5113593;27;20048;-53
2024/01/16 04:09:13;;;;;;;18.52;12.68;;;;;;;;;;5118115;27;20058;-54
2024/01/16 04:11:40;;;;;;;16.13;11.27;;;;;;;;;;5119461;27;20058;-52
2024/01/16 04:14:07;;;;;;;14.77;10.60;;;;;;;;;;5121962;27;20059;-52
2024/01/16 04:16:34;;;;;;;14.68;11.43;;;;;;;;;;5122205;27;20408;-52
2024/01/16 04:19:01;;;;;;;15.02;10.95;;;;;;;;;;5115720;27;20421;-53
2024/01/16 04:21:27;;;;;;;18.95;10.98;;;;;;;;;;5113827;28;20055;-52
2024/01/16 04:23:55;;;;;;;15.57;10.65;;;;;;;;;;5113785;28;20043;-53
2024/01/16 04:26:23;;;;;;;16.98;11.23;;;;;;;;;;5113954;28;20409;-51
2024/01/16 04:28:50;;;;;;;13.95;10.18;;;;;;;;;;5117943;27;20403;-52
2024/01/16 04:31:19;;;;;;;15.05;10.02;;;;;;;;;;5119444;27;20055;-54
2024/01/16 04:33:46;;;;;;;14.75;10.30;;;;;;;;;;5113653;28;20059;-53
2024/01/16 04:36:12;;;;;;;14.40;9.93;;;;;;;;;;5113690;28;20051;-52
2024/01/16 04:38:39;;;;;;;15.63;10.30;;;;;;;;;;5119620;27;20048;-54
2024/01/16 04:41:07;;;;;;;15.07;10.88;;;;;;;;;;5119884;27;20484;-54
2024/01/16 04:43:34;;;;;;;16.75;11.13;;;;;;;;;;5122943;27;20054;-54
2024/01/16 04:46:01;;;;;;;16.08;11.43;;;;;;;;;;5112335;28;20058;-54
2024/01/16 04:48:28;;;;;;;15.90;10.88;;;;;;;;;;5113144;28;20059;-53
2024/01/16 04:50:55;;;;;;;13.32;10.15;;;;;;;;;;5113507;28;20058;-54
2024/01/16 04:53:22;;;;;;;14.35;10.32;;;;;;;;;;5113116;28;20062;-53
2024/01/16 04:55:48;;;;;;;19.40;10.50;;;;;;;;;;5117235;27;20058;-52
2024/01/16 04:58:17;;;;;;;15.70;11.02;;;;;;;;;;5113125;28;20515;-52
2024/01/16 05:00:44;;;;;;;14.93;11.13;;;;;;;;;;5113052;28;20059;-53
2024/01/16 05:03:10;;;;;;;17.15;10.20;;;;;;;;;;5111947;28;20078;-53
2024/01/16 05:05:37;;;;;;;14.75;11.60;;;;;;;;;;5121948;27;20485;-52
2024/01/16 05:08:04;;;;;;;15.63;11.75;;;;;;;;;;5123216;27;20047;-51
2024/01/16 05:10:31;;;;;;;17.60;11.52;;;;;;;;;;5134032;27;20074;-54
2024/01/16 05:13:00;;;;;;;16.85;11.85;;;;;;;;;;5133831;27;20062;-52
2024/01/16 05:15:28;;;;;;;17.57;11.70;;;;;;;;;;5129724;27;20059;-55
2024/01/16 05:17:55;;;;;;;16.98;12.88;;;;;;;;;;5111810;28;20044;-53
2024/01/16 05:20:22;;;;;;;14.85;11.10;;;;;;;;;;5112908;28;20404;-54
2024/01/16 05:22:49;;;;;;;15.82;11.77;;;;;;;;;;5112996;28;20412;-55
2024/01/16 05:25:17;;;;;;;17.05;12.02;;;;;;;;;;5112327;28;20055;-54
2024/01/16 05:27:43;;;;;;;17.35;12.85;;;;;;;;;;5108607;28;20048;-56
2024/01/16 05:30:10;;;;;;;19.95;12.90;;;;;;;;;;5110037;28;20473;-54
2024/01/16 05:32:41;;;;;;;17.27;12.57;;;;;;;;;;5109858;28;20488;-55
2024/01/16 05:35:09;;;;;;;17.63;13.85;;;;;;;;;;5110308;28;20413;-53
2024/01/16 05:37:36;;;;;;;18.98;14.35;;;;;;;;;;5112706;28;20390;-52
2024/01/16 05:40:03;;;;;;;21.80;14.15;;;;;;;;;;5112396;28;20439;-53
2024/01/16 05:42:30;;;;;;;22.85;16.33;;;;;;;;;;5111896;28;20078;-54
2024/01/16 05:44:57;;;;;;;19.83;14.13;;;;;;;;;;5112106;28;20055;-53
2024/01/16 05:47:27;;;;;;;20.27;14.48;;;;;;;;;;5110374;28;20071;-54
2024/01/16 05:49:56;;;;;;;20.75;14.77;;;;;;;;;;5108741;28;20516;-53
2024/01/16 05:52:23;;;;;;;19.80;14.35;;;;;;;;;;5112549;28;20063;-53
2024/01/16 05:54:50;;;;;;;22.60;14.95;;;;;;;;;;5109484;28;20051;-53
2024/01/16 05:57:16;;;;;;;19.23;14.63;;;;;;;;;;5117329;28;20054;-52
2024/01/16 05:59:43;;;;;;;17.17;13.43;;;;;;;;;;5128019;28;20058;-53
2024/01/16 06:02:10;;;;;;;19.10;13.50;;;;;;;;;;5112499;28;20467;-51
2024/01/16 06:04:37;;;;;;;18.75;13.15;;;;;;;;;;5111682;28;20067;-50
2024/01/16 06:07:06;;;;;;;17.98;13.57;;;;;;;;;;5112399;28;20055;-51
2024/01/16 06:09:33;;;;;;;21.15;12.95;;;;;;;;;;5112623;28;20400;-54
2024/01/16 06:12:00;;;;;;;19.80;12.80;;;;;;;;;;5112950;28;20082;-52
2024/01/16 06:14:27;;;;;;;22.15;13.35;;;;;;;;;;5112286;28;20477;-54
2024/01/16 06:16:53;;;;;;;16.67;12.20;;;;;;;;;;5109918;28;20048;-54
2024/01/16 06:19:21;;;;;;;15.27;11.45;;;;;;;;;;5106704;28;20117;-54
2024/01/16 06:21:48;;;;;;;17.63;12.60;;;;;;;;;;5110194;28;20058;-51
2024/01/16 06:24:16;;;;;;;17.38;12.38;;;;;;;;;;5109709;28;20039;-54
2024/01/16 06:26:43;;;;;;;18.98;13.38;;;;;;;;;;5114060;28;20422;-54
2024/01/16 06:29:09;;;;;;;16.33;12.43;;;;;;;;;;5115979;27;20061;-54
2024/01/16 06:31:36;;;;;;;18.20;12.38;;;;;;;;;;5128060;27;20114;-54
2024/01/16 06:34:03;;;;;;;16.35;12.43;;;;;;;;;;5129593;27;20050;-52
2024/01/16 06:36:30;;;;;;;17.45;12.10;;;;;;;;;;5120172;27;20058;-54
2024/01/16 06:38:57;;;;;;;16.10;11.50;;;;;;;;;;5116537;27;20511;-53
2024/01/16 06:41:25;;;;;;;16.17;11.50;;;;;;;;;;5113869;27;20480;-52
2024/01/16 06:43:51;;;;;;;16.90;10.88;;;;;;;;;;5113769;27;20058;-53
2024/01/16 06:46:18;;;;;;;13.88;10.00;;;;;;;;;;5119708;27;20052;-53
2024/01/16 06:48:45;;;;;;;17.83;10.35;;;;;;;;;;5114895;27;20476;-51
2024/01/16 06:51:14;;;;;;;15.52;11.57;;;;;;;;;;5122407;27;20479;-52
2024/01/16 06:53:40;;;;;;;15.32;10.48;;;;;;;;;;5128854;27;20047;-52
2024/01/16 06:56:07;;;;;;;12.75;10.10;;;;;;;;;;5115554;27;20047;-55
2024/01/16 06:58:36;;;;;;;14.27;10.13;;;;;;;;;;5125161;27;20043;-54
2024/01/16 07:01:04;;;;;;;12.23;8.93;;;;;;;;;;5118763;27;20036;-53
2024/01/16 07:03:32;;;;;;;11.57;8.90;;;;;;;;;;5092475;28;20059;-50
2024/01/16 07:05:58;;;;;;;13.52;9.20;;;;;;;;;;5092467;28;20063;-52
2024/01/16 07:08:25;;;;;;;14.07;9.20;;;;;;;;;;5092165;28;20409;-54
2024/01/16 07:10:52;;;;;;;11.95;8.73;;;;;;;;;;5091801;28;20409;-52
2024/01/16 07:13:20;;;;;;;15.35;9.15;;;;;;;;;;5092749;28;20052;-53
2024/01/16 07:15:48;;;;;;;14.85;8.38;;;;;;;;;;5093824;28;20059;-53
2024/01/16 07:18:15;;;;;;;14.30;8.80;;;;;;;;;;5094612;28;20075;-54
2024/01/16 07:20:42;;;;;;;14.43;9.98;;;;;;;;;;5094572;28;20051;-53
2024/01/16 07:23:09;;;;;;;14.95;9.10;;;;;;;;;;5094254;28;20052;-54
2024/01/16 07:25:35;;;;;;;12.52;9.48;;;;;;;;;;5094285;28;20048;-53
2024/01/16 07:28:02;;;;;;;13.65;9.27;;;;;;;;;;5094128;28;20060;-52
2024/01/16 07:30:29;;;;;;;13.63;9.30;;;;;;;;;;5094560;28;20048;-55
2024/01/16 07:32:57;;;;;;;18.35;11.13;;;;;;;;;;5094167;28;20052;-63
2024/01/16 07:35:24;;;;;;;15.57;10.57;;;;;;;;;;5111528;28;20048;-63
2024/01/16 07:37:51;;;;;;;14.90;10.32;;;;;;;;;;5113711;28;20047;-65
2024/01/16 07:40:18;;;;;;;17.77;10.70;;;;;;;;;;5114572;28;20052;-64
2024/01/16 07:42:44;;;;;;;18.50;11.75;;;;;;;;;;5114129;28;20056;-62
2024/01/16 07:45:11;;;;;;;13.48;11.05;;;;;;;;;;5114529;28;20050;-62
2024/01/16 07:47:38;;;;;;;16.08;12.10;;;;;;;;;;5114427;28;20048;-62
2024/01/16 07:50:07;;;;;;;16.45;11.10;;;;;;;;;;5114148;28;20053;-62
2024/01/16 07:52:34;;;;;;;18.75;12.73;;;;;;;;;;5114318;28;20054;-65
2024/01/16 07:55:01;;;;;;;19.45;11.70;;;;;;;;;;5113864;28;20412;-64
2024/01/16 07:57:27;;;;;;;18.02;11.68;;;;;;;;;;5113988;28;20059;-55
2024/01/16 07:59:54;;;;;;;17.70;11.93;;;;;;;;;;5114341;28;20051;-55
2024/01/16 08:02:21;;;;;;;16.33;10.32;;;;;;;;;;5114464;28;20401;-55
2024/01/16 08:04:48;;;;;;;20.58;10.45;;;;;;;;;;5114239;28;20373;-51
2024/01/16 08:07:16;;;;;;;17.13;10.32;;;;;;;;;;5113545;28;20062;-55
2024/01/16 08:09:43;;;;;;;16.67;10.30;;;;;;;;;;5113619;28;20059;-53
2024/01/16 08:12:10;;;;;;;17.38;9.77;;;;;;;;;;5114263;28;20347;-53
2024/01/16 08:14:37;;;;;;;17.17;9.60;;;;;;;;;;5114043;28;20066;-53
2024/01/16 08:17:04;;;;;;;19.27;9.50;;;;;;;;;;5114320;28;20060;-54
2024/01/16 08:19:30;;;;;;;16.95;9.30;;;;;;;;;;5113749;28;20507;-56
2024/01/16 08:21:57;;;;;;;16.88;8.35;;;;;;;;;;5114321;28;20063;-57
2024/01/16 08:24:25;;;;;;;15.27;9.90;;;;;;;;;;5113726;28;20048;-56
2024/01/16 08:26:52;;;;;;;16.25;9.48;;;;;;;;;;5114164;28;20047;-53
2024/01/16 08:29:19;;;;;;;16.08;8.40;;;;;;;;;;5114136;28;20052;-64
2024/01/16 08:31:46;;;;;;;13.25;8.93;;;;;;;;;;5114185;28;20055;-64
2024/01/16 08:34:13;;;;;;;12.10;7.38;;;;;;;;;;5113776;28;20497;-64
2024/01/16 08:36:40;;;;;;;12.63;6.97;;;;;;;;;;5113777;28;20070;-63
2024/01/16 08:39:07;;;;;;;14.30;7.00;;;;;;;;;;5113652;28;20055;-63
2024/01/16 08:41:35;;;;;;;12.00;7.05;;;;;;;;;;5113720;28;20055;-63
2024/01/16 08:44:02;;;;;;;11.13;6.00;;;;;;;;;;5113614;28;20380;-63
2024/01/16 08:46:28;;;;;;;11.50;6.50;;;;;;;;;;5113672;28;20382;-63
2024/01/16 08:48:55;;;;;;;12.50;5.75;;;;;;;;;;5112924;28;20062;-63
2024/01/16 08:51:22;;;;;;;9.82;5.30;;;;;;;;;;5113516;28;20047;-62
2024/01/16 08:53:49;;;;;;;11.27;5.38;;;;;;;;;;5112488;28;20527;-63
2024/01/16 08:56:17;;;;;;;13.07;4.93;;;;;;;;;;5113446;28;20054;-62
2024/01/16 08:58:46;;;;;;;8.95;4.90;;;;;;;;;;5113488;28;20060;-63
2024/01/16 09:01:12;;;;;;;9.25;5.00;;;;;;;;;;5113157;28;20074;-64
2024/01/16 09:03:39;;;;;;;11.73;4.30;;;;;;;;;;5113041;28;20048;-63
2024/01/16 09:06:06;;;;;;;12.23;4.68;;;;;;;;;;5112909;28;20051;-63
2024/01/16 09:08:33;;;;;;;12.27;4.65;;;;;;;;;;5113248;28;20047;-63
2024/01/16 09:11:00;;;;;;;8.15;4.25;;;;;;;;;;5113446;28;20059;-63
2024/01/16 09:13:26;;;;;;;7.85;4.07;;;;;;;;;;5113133;28;20130;-63
2024/01/16 09:15:55;;;;;;;10.18;4.30;;;;;;;;;;5113079;28;20377;-63
2024/01/16 09:18:22;;;;;;;9.68;4.10;;;;;;;;;;5112740;28;20504;-63
2024/01/16 09:20:49;;;;;;;10.98;4.32;;;;;;;;;;5113030;28;20051;-63
2024/01/16 09:23:16;;;;;;;7.93;4.00;;;;;;;;;;5112992;28;20052;-62
2024/01/16 09:25:43;;;;;;;13.52;4.40;;;;;;;;;;5113145;28;20374;-62
2024/01/16 09:28:09;;;;;;;12.80;4.75;;;;;;;;;;5113192;28;20129;-63
2024/01/16 09:30:36;;;;;;;10.43;3.22;;;;;;;;;;5112830;28;20051;-62
2024/01/16 09:33:06;;;;;;;13.25;4.20;;;;;;;;;;5112544;28;20059;-62
2024/01/16 09:35:33;;;;;;;13.52;4.53;;;;;;;;;;5112762;28;20047;-62
2024/01/16 09:38:00;;;;;;;10.95;4.32;;;;;;;;;;5112508;28;20055;-62
2024/01/16 09:40:27;;;;;;;10.60;3.63;;;;;;;;;;5112404;28;20051;-62
2024/01/16 09:42:54;;;;;;;9.35;3.40;;;;;;;;;;5112576;28;20055;-62
2024/01/16 09:45:21;;;;;;;10.23;4.70;;;;;;;;;;5112346;28;20137;-62
2024/01/16 09:47:49;;;;;;;7.82;3.53;;;;;;;;;;5112740;28;20047;-62
2024/01/16 09:50:18;;;;;;;9.10;3.20;;;;;;;;;;5112497;28;20056;-61
2024/01/16 09:52:46;;;;;;;7.30;3.63;;;;;;;;;;5112215;28;20059;-61
2024/01/16 09:55:13;;;;;;;7.80;3.28;;;;;;;;;;5112489;28;20063;-61
2024/01/16 09:57:41;;;;;;;8.60;2.95;;;;;;;;;;5112211;28;20092;-61
2024/01/16 10:00:11;;;;;;;9.02;3.42;;;;;;;;;;5113477;28;20063;-61
2024/01/16 10:02:38;;;;;;;7.53;3.17;;;;;;;;;;5116258;28;20416;-62
2024/01/16 10:05:05;;;;;;;8.60;3.03;;;;;;;;;;5116654;28;20059;-62
2024/01/16 10:07:34;;;;;;;6.13;2.95;;;;;;;;;;5115888;28;20048;-62
2024/01/16 10:10:01;;;;;;;11.90;3.33;;;;;;;;;;5116750;28;20055;-61
2024/01/16 10:12:28;;;;;;;10.50;3.17;;;;;;;;;;5116078;28;20058;-62
2024/01/16 10:14:56;;;;;;;7.78;2.90;;;;;;;;;;5116470;28;20055;-62
2024/01/16 10:17:24;;;;;;;8.95;3.00;;;;;;;;;;5116758;28;20477;-62
2024/01/16 10:19:52;;;;;;;9.65;3.28;;;;;;;;;;5116083;28;20420;-62
2024/01/16 10:22:24;;;;;;;8.55;3.13;;;;;;;;;;5116799;28;20047;-62
2024/01/16 10:25:03;;;;;;;9.95;3.30;;;;;;;;;;5116441;28;20047;-62
2024/01/16 10:27:31;;;;;;;6.93;2.80;;;;;;;;;;5116184;28;20070;-63
2024/01/16 10:29:59;;;;;;;8.90;2.75;;;;;;;;;;5116132;28;20047;-63
2024/01/16 10:32:30;;;;;;;7.43;2.70;;;;;;;;;;5116196;28;20408;-62
2024/01/16 10:35:07;;;;;;;11.32;3.28;;;;;;;;;;5115708;28;20058;-62
2024/01/16 10:37:43;;;;;;;7.72;3.20;;;;;;;;;;5116246;28;20412;-62
2024/01/16 10:40:12;;;;;;;7.45;3.30;;;;;;;;;;5115997;28;20059;-62
2024/01/16 10:42:39;;;;;;;8.40;2.90;;;;;;;;;;5116123;28;20052;-63
2024/01/16 10:45:06;;;;;;;7.78;2.90;;;;;;;;;;5115384;28;20047;-63
2024/01/16 10:47:36;;;;;;;7.38;3.20;;;;;;;;;;5115562;28;20055;-62
2024/01/16 10:50:04;;;;;;;5.80;2.58;;;;;;;;;;5115837;28;20056;-62
2024/01/16 10:52:33;;;;;;;8.02;3.00;;;;;;;;;;5115261;28;20058;-62
2024/01/16 10:55:03;;;;;;;7.03;3.35;;;;;;;;;;5115262;28;20417;-61
2024/01/16 10:57:32;;;;;;;7.68;3.08;;;;;;;;;;5116018;28;20067;-63
2024/01/16 11:00:04;;;;;;;9.85;3.63;;;;;;;;;;5115572;28;20078;-63
2024/01/16 11:02:35;;;;;;;5.55;2.85;;;;;;;;;;5115451;28;20056;-63
2024/01/16 11:05:03;;;;;;;9.32;3.17;;;;;;;;;;5115778;28;20052;-62
2024/01/16 11:07:30;;;;;;;9.10;3.42;;;;;;;;;;5115265;28;20397;-63
2024/01/16 11:09:57;;;;;;;8.18;3.20;;;;;;;;;;5115249;28;20071;-63
2024/01/16 11:12:26;;;;;;;6.45;2.70;;;;;;;;;;5115489;28;20056;-63
2024/01/16 11:14:55;;;;;;;8.75;3.35;;;;;;;;;;5115629;28;20481;-63
2024/01/16 11:17:23;;;;;;;9.90;3.33;;;;;;;;;;5115689;28;20074;-63
2024/01/16 11:19:50;;;;;;;9.98;3.20;;;;;;;;;;5115266;28;20405;-62
2024/01/16 11:22:18;;;;;;;8.48;3.67;;;;;;;;;;5115006;28;20063;-63
2024/01/16 11:24:46;;;;;;;7.97;2.80;;;;;;;;;;5115028;28;20056;-63
2024/01/16 11:27:23;;;;;;;6.80;2.90;;;;;;;;;;5115562;28;20496;-63
2024/01/16 11:29:51;;;;;;;5.45;3.28;;;;;;;;;;5114830;28;20055;-62
2024/01/16 11:32:32;;;;;;;8.07;3.33;;;;;;;;;;5115212;28;20074;-62
2024/01/16 11:35:00;;;;;;;8.15;2.88;;;;;;;;;;5114715;28;20051;-62
2024/01/16 11:37:28;;;;;;;11.52;3.50;;;;;;;;;;5115006;28;20055;-62
2024/01/16 11:40:21;;;;;;;8.85;3.17;;;;;;;;;;5115078;28;20480;-62
2024/01/16 11:42:48;;;;;;;9.55;3.53;;;;;;;;;;5114619;28;20048;-61
2024/01/16 11:45:30;;;;;;;7.57;3.08;;;;;;;;;;5114895;28;20047;-62
2024/01/16 11:48:09;;;;;;;9.10;3.20;;;;;;;;;;5113873;28;20044;-62
2024/01/16 11:50:37;;;;;;;12.02;4.10;;;;;;;;;;5114802;28;20058;-62
2024/01/16 11:53:04;;;;;;;14.18;4.50;;;;;;;;;;5114163;28;20058;-62
2024/01/16 11:55:32;;;;;;;8.40;3.25;;;;;;;;;;5114803;28;20059;-62
2024/01/16 11:58:16;;;;;;;7.75;3.90;;;;;;;;;;5114723;28;20081;-62
2024/01/16 12:00:46;;;;;;;9.40;3.45;;;;;;;;;;5114809;28;20401;-62
2024/01/16 12:03:13;;;;;;;7.50;3.40;;;;;;;;;;5114605;28;20055;-62
2024/01/16 12:05:43;;;;;;;9.45;4.18;;;;;;;;;;5114509;28;20048;-62
2024/01/16 12:08:10;;;;;;;;;;;;;;;;;;5114414;28;20055;-62
2024/01/16 12:10:47;;;;;;;7.88;3.58;;;;;;;;;;5114245;28;19927;-62
2024/01/16 12:13:13;;;;;;;8.77;3.53;;;;;;;;;;5114102;28;20055;-62
2024/01/16 12:15:40;;;;;;;9.80;3.70;;;;;;;;;;5114597;28;20051;-62
2024/01/16 12:18:07;;;;;;;11.48;4.10;;;;;;;;;;5114464;28;20408;-62
2024/01/16 12:20:35;;;;;;;8.82;3.97;;;;;;;;;;5114205;28;20051;-62
2024/01/16 12:23:04;;;;;;;8.90;3.78;;;;;;;;;;5113613;28;20103;-62
2024/01/16 12:25:31;;;;;;;10.35;3.90;;;;;;;;;;5114091;28;20055;-62
2024/01/16 12:27:58;;;;;;;10.88;3.72;;;;;;;;;;5113731;28;20047;-62
2024/01/16 12:30:28;;;;;;;8.98;3.50;;;;;;;;;;5113746;28;20048;-62
2024/01/16 12:33:05;;;;;;;9.40;3.35;;;;;;;;;;5114054;28;20059;-62
2024/01/16 12:35:31;;;;;;;9.38;3.50;;;;;;;;;;5113812;28;20047;-62
2024/01/16 12:37:59;;;;;;;6.82;3.33;;;;;;;;;;5113479;28;20044;-63
2024/01/16 12:40:27;;;;;;;7.32;3.50;;;;;;;;;;5113610;28;20044;-62
2024/01/16 12:42:54;;;;;;;7.10;3.35;;;;;;;;;;5113438;28;20056;-63
2024/01/16 12:45:21;;;;;;;8.02;3.00;;;;;;;;;;5113697;28;20062;-63
2024/01/16 12:47:51;;;;;;;8.48;3.20;;;;;;;;;;5113254;28;20058;-63
2024/01/16 12:50:20;;;;;;;7.95;3.25;;;;;;;;;;5113451;28;20052;-63
2024/01/16 12:52:47;;;;;;;9.75;3.90;;;;;;;;;;5113426;28;20129;-63
2024/01/16 12:55:15;;;;;;;11.15;3.45;;;;;;;;;;5113134;28;20424;-63
2024/01/16 12:57:43;;;;;;;9.00;3.38;;;;;;;;;;5114114;28;20043;-63
2024/01/16 13:00:23;;;;;;;5.78;2.92;;;;;;;;;;5113562;28;20051;-63
2024/01/16 13:02:51;;;;;;;8.35;3.60;;;;;;;;;;5113535;28;20051;-63
2024/01/16 13:05:18;;;;;;;6.18;3.22;;;;;;;;;;5113145;28;20051;-63
2024/01/16 13:07:45;;;;;;;8.40;3.25;;;;;;;;;;5113075;28;20048;-63
2024/01/16 13:10:15;;;;;;;7.68;3.33;;;;;;;;;;5113264;28;20436;-63
2024/01/16 13:12:44;;;;;;;7.30;3.60;;;;;;;;;;5113704;28;20077;-63
2024/01/16 13:15:11;;;;;;;7.57;3.42;;;;;;;;;;5113096;28;20051;-63
2024/01/16 13:17:38;;;;;;;7.85;3.47;;;;;;;;;;5113316;28;20054;-64
2024/01/16 13:20:07;;;;;;;6.88;3.28;;;;;;;;;;5113127;28;20058;-64
2024/01/16 13:22:34;;;;;;;6.70;3.40;;;;;;;;;;5112650;28;20500;-64
2024/01/16 13:25:01;;;;;;;6.72;3.70;;;;;;;;;;5113274;28;20067;-64
2024/01/16 13:27:29;;;;;;;9.00;3.78;;;;;;;;;;5113090;28;20126;-64
2024/01/16 13:29:58;;;;;;;5.38;3.50;;;;;;;;;;5112944;28;20056;-64
2024/01/16 13:32:26;;;;;;;8.35;4.13;;;;;;;;;;5113445;28;20070;-64
2024/01/16 13:34:53;;;;;;;11.02;4.05;;;;;;;;;;5113193;28;20051;-63
2024/01/16 13:37:21;;;;;;;6.28;3.60;;;;;;;;;;5117734;28;20047;-63
2024/01/16 13:39:47;;;;;;;8.57;3.58;;;;;;;;;;5117471;28;20412;-64
2024/01/16 13:42:18;;;;;;;7.55;3.03;;;;;;;;;;5117354;28;20059;-64
2024/01/16 13:44:45;;;;;;;7.50;3.38;;;;;;;;;;5117399;28;20070;-64
2024/01/16 13:47:14;;;;;;;6.78;3.30;;;;;;;;;;5117128;28;20113;-64
2024/01/16 13:49:41;;;;;;;6.72;3.38;;;;;;;;;;5116890;28;20052;-64
2024/01/16 13:52:08;;;;;;;5.65;3.35;;;;;;;;;;5117417;28;20633;-63
2024/01/16 13:54:37;;;;;;;5.72;3.35;;;;;;;;;;5116635;28;20051;-63
2024/01/16 13:57:04;;;;;;;6.63;3.38;;;;;;;;;;5117340;28;20481;-64
2024/01/16 13:59:31;;;;;;;9.85;3.35;;;;;;;;;;5117054;28;20051;-64
2024/01/16 14:01:57;;;;;;;10.20;4.07;;;;;;;;;;5117079;28;20052;-64
2024/01/16 14:04:26;;;;;;;7.18;3.38;;;;;;;;;;5116999;28;20082;-63
2024/01/16 14:06:52;;;;;;;9.82;3.70;;;;;;;;;;5116701;28;20058;-63
2024/01/16 14:09:20;;;;;;;8.63;3.97;;;;;;;;;;5117002;28;20047;-63
2024/01/16 14:11:46;;;;;;;9.10;3.90;;;;;;;;;;5116817;28;20405;-63
2024/01/16 14:14:13;;;;;;;8.27;3.78;;;;;;;;;;5116378;28;20051;-63
2024/01/16 14:16:40;;;;;;;7.13;4.05;;;;;;;;;;5116607;28;20051;-63
2024/01/16 14:19:07;;;;;;;10.40;4.10;;;;;;;;;;5116344;28;20408;-63
2024/01/16 14:21:35;;;;;;;7.30;3.70;;;;;;;;;;5116520;28;20055;-63
2024/01/16 14:24:03;;;;;;;8.65;4.25;;;;;;;;;;5116284;28;20055;-63
2024/01/16 14:26:29;;;;;;;9.40;4.60;;;;;;;;;;5116612;28;20056;-63
2024/01/16 14:28:56;;;;;;;6.72;4.18;;;;;;;;;;5116056;28;20052;-63
2024/01/16 14:31:23;;;;;;;7.72;4.10;;;;;;;;;;5115865;28;20373;-63